createdAt,value
2023-03-18T00:00:58.344Z,8.68
2023-03-18T00:01:58.452Z,8.66
2023-03-18T00:02:58.445Z,8.66
2023-03-18T00:03:58.397Z,8.66
2023-03-18T00:04:58.454Z,8.63
2023-03-18T00:05:58.378Z,8.63
2023-03-18T00:06:58.475Z,8.63
2023-03-18T00:07:58.388Z,8.62
2023-03-18T00:08:58.199Z,8.63
2023-03-18T00:09:58.479Z,8.62
2023-03-18T00:10:58.415Z,8.62
2023-03-18T00:11:58.201Z,8.60
2023-03-18T00:12:58.552Z,8.58
2023-03-18T00:13:58.239Z,8.57
2023-03-18T00:14:58.229Z,8.57
2023-03-18T00:15:58.355Z,8.58
2023-03-18T00:16:58.362Z,8.58
2023-03-18T00:17:58.149Z,8.60
2023-03-18T00:18:58.056Z,8.60
2023-03-18T00:19:58.775Z,8.60
2023-03-18T00:20:58.085Z,8.62
2023-03-18T00:22:02.177Z,8.63
2023-03-18T00:22:58.175Z,8.63
2023-03-18T00:23:58.056Z,8.66
2023-03-18T00:24:57.998Z,8.65
2023-03-18T00:25:58.025Z,8.68
2023-03-18T00:26:58.034Z,8.68
2023-03-18T00:27:58.012Z,8.69
2023-03-18T00:28:58.052Z,8.71
2023-03-18T00:29:57.929Z,8.73
2023-03-18T00:30:57.997Z,8.73
2023-03-18T00:31:57.944Z,8.73
2023-03-18T00:32:58.049Z,8.72
2023-03-18T00:33:59.002Z,8.73
2023-03-18T00:34:57.997Z,8.72
2023-03-18T00:35:57.880Z,8.73
2023-03-18T00:36:57.886Z,8.73
2023-03-18T00:37:58.896Z,8.73
2023-03-18T00:38:58.084Z,8.73
2023-03-18T00:39:57.908Z,8.72
2023-03-18T00:40:57.814Z,8.72
2023-03-18T00:41:57.832Z,8.71
2023-03-18T00:42:57.825Z,8.68
2023-03-18T00:43:57.804Z,8.69
2023-03-18T00:44:57.774Z,8.69
2023-03-18T00:45:57.830Z,8.69
2023-03-18T00:46:57.765Z,8.69
2023-03-18T00:47:57.799Z,8.71
2023-03-18T00:48:57.663Z,8.72
2023-03-18T00:49:57.676Z,8.72
2023-03-18T00:50:57.699Z,8.73
2023-03-18T00:51:57.754Z,8.75
2023-03-18T00:52:57.582Z,8.76
2023-03-18T00:53:57.670Z,8.78
2023-03-18T00:54:57.700Z,8.79
2023-03-18T00:55:57.590Z,8.79
2023-03-18T00:56:57.610Z,8.83
2023-03-18T00:57:57.647Z,8.83
2023-03-18T00:58:57.752Z,8.84
2023-03-18T00:59:57.727Z,8.83
2023-03-18T01:00:57.651Z,8.81
2023-03-18T01:01:58.018Z,8.81
2023-03-18T01:02:57.550Z,8.79
2023-03-18T01:03:57.753Z,8.79
2023-03-18T01:04:57.679Z,8.79
2023-03-18T01:05:57.469Z,8.79
2023-03-18T01:06:57.682Z,8.79
2023-03-18T01:07:57.690Z,8.78
2023-03-18T01:08:57.532Z,8.76
2023-03-18T01:09:57.645Z,8.78
2023-03-18T01:10:57.505Z,8.81
2023-03-18T01:11:57.720Z,8.79
2023-03-18T01:12:57.523Z,8.83
2023-03-18T01:14:00.505Z,8.83
2023-03-18T01:14:57.414Z,8.83
2023-03-18T01:15:57.385Z,8.81
2023-03-18T01:16:57.243Z,8.79
2023-03-18T01:17:57.353Z,8.81
2023-03-18T01:18:57.282Z,8.79
2023-03-18T01:19:57.359Z,8.81
2023-03-18T01:20:57.375Z,8.81
2023-03-18T01:21:57.180Z,8.81
2023-03-18T01:22:57.273Z,8.83
2023-03-18T01:23:58.431Z,8.79
2023-03-18T01:24:57.344Z,8.79
2023-03-18T01:25:57.248Z,8.78
2023-03-18T01:26:57.497Z,8.78
2023-03-18T01:27:57.234Z,8.76
2023-03-18T01:28:57.222Z,8.76
2023-03-18T01:29:57.214Z,8.75
2023-03-18T01:30:57.137Z,8.75
2023-03-18T01:31:57.204Z,8.75
2023-03-18T01:32:57.161Z,8.73
2023-03-18T01:33:57.063Z,8.75
2023-03-18T01:34:57.084Z,8.73
2023-03-18T01:35:57.077Z,8.73
2023-03-18T01:36:57.159Z,8.72
2023-03-18T01:37:57.108Z,8.72
2023-03-18T01:38:56.996Z,8.72
2023-03-18T01:39:56.997Z,8.71
2023-03-18T01:40:57.024Z,8.69
2023-03-18T01:41:57.029Z,8.69
2023-03-18T01:42:57.011Z,8.71
2023-03-18T01:43:57.005Z,8.69
2023-03-18T01:44:57.017Z,8.71
2023-03-18T01:45:57.015Z,8.71
2023-03-18T01:46:57.347Z,8.69
2023-03-18T01:47:56.932Z,8.71
2023-03-18T01:48:56.846Z,8.73
2023-03-18T01:49:56.959Z,8.73
2023-03-18T01:50:56.870Z,8.75
2023-03-18T01:51:56.785Z,8.76
2023-03-18T01:52:56.871Z,8.78
2023-03-18T01:53:56.814Z,8.79
2023-03-18T01:54:56.836Z,8.79
2023-03-18T01:55:56.780Z,8.83
2023-03-18T01:56:56.732Z,8.83
2023-03-18T01:57:56.905Z,8.81
2023-03-18T01:58:56.689Z,8.79
2023-03-18T01:59:56.716Z,8.78
2023-03-18T02:00:56.707Z,8.78
2023-03-18T02:01:56.629Z,8.78
2023-03-18T02:02:57.444Z,8.79
2023-03-18T02:03:56.669Z,8.78
2023-03-18T02:04:56.585Z,8.76
2023-03-18T02:05:56.661Z,8.76
2023-03-18T02:06:56.589Z,8.75
2023-03-18T02:07:56.481Z,8.75
2023-03-18T02:08:56.660Z,8.75
2023-03-18T02:09:56.630Z,8.73
2023-03-18T02:10:56.599Z,8.73
2023-03-18T02:12:02.269Z,8.72
2023-03-18T02:12:56.504Z,8.71
2023-03-18T02:13:56.601Z,8.71
2023-03-18T02:14:56.428Z,8.71
2023-03-18T02:15:56.545Z,8.71
2023-03-18T02:16:56.616Z,8.69
2023-03-18T02:17:57.696Z,8.68
2023-03-18T02:18:59.206Z,8.68
2023-03-18T02:19:56.466Z,8.68
2023-03-18T02:20:56.621Z,8.66
2023-03-18T02:21:56.474Z,8.66
2023-03-18T02:22:56.876Z,8.66
2023-03-18T02:23:56.384Z,8.66
2023-03-18T02:24:56.485Z,8.66
2023-03-18T02:25:56.392Z,8.66
2023-03-18T02:26:56.330Z,8.66
2023-03-18T02:27:56.343Z,8.66
2023-03-18T02:28:56.315Z,8.66
2023-03-18T02:29:56.307Z,8.68
2023-03-18T02:30:56.274Z,8.63
2023-03-18T02:31:56.231Z,8.65
2023-03-18T02:32:56.372Z,8.65
2023-03-18T02:33:56.150Z,8.65
2023-03-18T02:34:56.261Z,8.63
2023-03-18T02:35:56.208Z,8.63
2023-03-18T02:36:56.268Z,8.62
2023-03-18T02:37:56.205Z,8.62
2023-03-18T02:38:56.169Z,8.62
2023-03-18T02:39:56.195Z,8.63
2023-03-18T02:40:56.174Z,8.60
2023-03-18T02:41:56.180Z,8.60
2023-03-18T02:42:56.116Z,8.60
2023-03-18T02:43:56.035Z,8.62
2023-03-18T02:44:56.021Z,8.60
2023-03-18T02:45:56.024Z,8.60
2023-03-18T02:46:56.044Z,8.62
2023-03-18T02:47:56.088Z,8.60
2023-03-18T02:48:55.982Z,8.60
2023-03-18T02:49:55.955Z,8.60
2023-03-18T02:50:56.060Z,8.60
2023-03-18T02:51:56.057Z,8.58
2023-03-18T02:52:55.978Z,8.58
2023-03-18T02:53:55.868Z,8.58
2023-03-18T02:54:55.889Z,8.58
2023-03-18T02:55:56.067Z,8.58
2023-03-18T02:56:55.900Z,8.58
2023-03-18T02:57:56.038Z,8.58
2023-03-18T02:58:55.916Z,8.58
2023-03-18T02:59:55.819Z,8.58
2023-03-18T03:00:55.839Z,8.58
2023-03-18T03:01:55.823Z,8.57
2023-03-18T03:02:55.878Z,8.57
2023-03-18T03:03:55.841Z,8.57
2023-03-18T03:04:55.740Z,8.58
2023-03-18T03:05:55.790Z,8.57
2023-03-18T03:06:55.777Z,8.58
2023-03-18T03:07:55.898Z,8.58
2023-03-18T03:08:55.793Z,8.58
2023-03-18T03:09:55.466Z,8.57
2023-03-18T03:10:55.407Z,8.57
2023-03-18T03:11:55.422Z,8.58
2023-03-18T03:12:55.388Z,8.60
2023-03-18T03:13:55.424Z,8.58
2023-03-18T03:14:55.361Z,8.58
2023-03-18T03:15:55.437Z,8.58
2023-03-18T03:16:55.504Z,8.57
2023-03-18T03:17:55.304Z,8.57
2023-03-18T03:18:55.271Z,8.58
2023-03-18T03:19:55.275Z,8.58
2023-03-18T03:20:55.365Z,8.58
2023-03-18T03:21:55.217Z,8.57
2023-03-18T03:22:55.233Z,8.57
2023-03-18T03:23:55.184Z,8.58
2023-03-18T03:24:55.191Z,8.58
2023-03-18T03:25:55.227Z,8.60
2023-03-18T03:26:55.185Z,8.60
2023-03-18T03:27:55.157Z,8.60
2023-03-18T03:28:55.130Z,8.60
2023-03-18T03:29:55.127Z,8.60
2023-03-18T03:30:55.124Z,8.60
2023-03-18T03:31:55.092Z,8.62
2023-03-18T03:32:55.095Z,8.62
2023-03-18T03:33:55.068Z,8.60
2023-03-18T03:34:55.064Z,8.58
2023-03-18T03:35:55.191Z,8.60
2023-03-18T03:36:55.093Z,8.58
2023-03-18T03:37:55.018Z,8.57
2023-03-18T03:38:54.998Z,8.57
2023-03-18T03:39:54.978Z,8.57
2023-03-18T03:40:54.984Z,8.54
2023-03-18T03:41:55.029Z,8.53
2023-03-18T03:42:54.950Z,8.53
2023-03-18T03:43:54.967Z,8.54
2023-03-18T03:44:54.945Z,8.54
2023-03-18T03:45:54.903Z,8.54
2023-03-18T03:46:54.920Z,8.54
2023-03-18T03:47:54.940Z,8.55
2023-03-18T03:48:54.875Z,8.55
2023-03-18T03:49:54.961Z,8.54
2023-03-18T03:50:54.810Z,8.54
2023-03-18T03:51:54.868Z,8.54
2023-03-18T03:52:54.782Z,8.53
2023-03-18T03:53:54.865Z,8.51
2023-03-18T03:54:54.766Z,8.51
2023-03-18T03:55:55.619Z,8.51
2023-03-18T03:56:54.731Z,8.51
2023-03-18T03:57:54.711Z,8.50
2023-03-18T03:58:54.862Z,8.50
2023-03-18T03:59:54.684Z,8.48
2023-03-18T04:00:54.682Z,8.48
2023-03-18T04:01:55.001Z,8.47
2023-03-18T04:02:54.768Z,8.47
2023-03-18T04:03:54.691Z,8.47
2023-03-18T04:04:54.641Z,8.47
2023-03-18T04:05:54.651Z,8.47
2023-03-18T04:06:54.652Z,8.48
2023-03-18T04:07:54.641Z,8.45
2023-03-18T04:08:54.567Z,8.48
2023-03-18T04:09:54.543Z,8.48
2023-03-18T04:10:54.567Z,8.48
2023-03-18T04:11:54.562Z,8.48
2023-03-18T04:12:54.513Z,8.47
2023-03-18T04:13:54.496Z,8.50
2023-03-18T04:14:54.466Z,8.50
2023-03-18T04:15:54.485Z,8.48
2023-03-18T04:16:54.447Z,8.50
2023-03-18T04:17:54.609Z,8.50
2023-03-18T04:18:54.416Z,8.48
2023-03-18T04:19:54.440Z,8.47
2023-03-18T04:20:54.397Z,8.47
2023-03-18T04:21:54.385Z,8.47
2023-03-18T04:22:54.360Z,8.45
2023-03-18T04:23:54.350Z,8.45
2023-03-18T04:24:54.345Z,8.45
2023-03-18T04:25:54.337Z,8.44
2023-03-18T04:26:54.330Z,8.45
2023-03-18T04:27:54.286Z,8.44
2023-03-18T04:28:54.303Z,8.47
2023-03-18T04:29:54.377Z,8.48
2023-03-18T04:30:54.345Z,8.47
2023-03-18T04:31:54.269Z,8.48
2023-03-18T04:32:54.241Z,8.48
2023-03-18T04:33:54.329Z,8.50
2023-03-18T04:34:54.218Z,8.50
2023-03-18T04:35:54.264Z,8.51
2023-03-18T04:36:54.210Z,8.51
2023-03-18T04:37:54.177Z,8.51
2023-03-18T04:38:54.198Z,8.51
2023-03-18T04:39:54.200Z,8.51
2023-03-18T04:40:54.098Z,8.51
2023-03-18T04:41:54.140Z,8.51
2023-03-18T04:42:54.141Z,8.51
2023-03-18T04:43:54.102Z,8.51
2023-03-18T04:44:54.082Z,8.53
2023-03-18T04:45:54.107Z,8.54
2023-03-18T04:46:54.087Z,8.55
2023-03-18T04:47:54.054Z,8.57
2023-03-18T04:48:54.054Z,8.57
2023-03-18T04:49:53.972Z,8.57
2023-03-18T04:50:54.077Z,8.57
2023-03-18T04:51:54.038Z,8.58
2023-03-18T04:52:54.032Z,8.60
2023-03-18T04:53:53.931Z,8.60
2023-03-18T04:54:53.942Z,8.60
2023-03-18T04:55:53.911Z,8.58
2023-03-18T04:56:54.021Z,8.58
2023-03-18T04:57:53.972Z,8.57
2023-03-18T04:58:53.859Z,8.57
2023-03-18T04:59:53.932Z,8.55
2023-03-18T05:00:54.031Z,8.53
2023-03-18T05:01:53.858Z,8.53
2023-03-18T05:02:53.875Z,8.50
2023-03-18T05:03:53.913Z,8.48
2023-03-18T05:04:53.926Z,8.47
2023-03-18T05:05:54.635Z,8.47
2023-03-18T05:06:53.762Z,8.45
2023-03-18T05:07:53.753Z,8.44
2023-03-18T05:08:53.703Z,8.42
2023-03-18T05:09:53.779Z,8.42
2023-03-18T05:10:53.738Z,8.42
2023-03-18T05:11:53.671Z,8.42
2023-03-18T05:12:53.676Z,8.44
2023-03-18T05:13:53.650Z,8.47
2023-03-18T05:14:54.252Z,8.47
2023-03-18T05:15:53.649Z,8.48
2023-03-18T05:16:54.404Z,8.50
2023-03-18T05:17:53.587Z,8.50
2023-03-18T05:18:53.625Z,8.51
2023-03-18T05:19:53.589Z,8.51
2023-03-18T05:20:53.541Z,8.50
2023-03-18T05:21:53.554Z,8.50
2023-03-18T05:22:53.586Z,8.47
2023-03-18T05:23:53.499Z,8.47
2023-03-18T05:24:53.705Z,8.45
2023-03-18T05:25:53.519Z,8.44
2023-03-18T05:26:53.627Z,8.44
2023-03-18T05:27:53.435Z,8.44
2023-03-18T05:28:53.443Z,8.44
2023-03-18T05:29:53.428Z,8.42
2023-03-18T05:30:53.444Z,8.40
2023-03-18T05:31:53.511Z,8.42
2023-03-18T05:32:53.479Z,8.40
2023-03-18T05:33:53.475Z,8.40
2023-03-18T05:34:53.447Z,8.39
2023-03-18T05:35:53.334Z,8.42
2023-03-18T05:36:53.340Z,8.42
2023-03-18T05:37:53.306Z,8.45
2023-03-18T05:38:53.322Z,8.48
2023-03-18T05:39:53.300Z,8.48
2023-03-18T05:40:53.282Z,8.47
2023-03-18T05:41:53.871Z,8.47
2023-03-18T05:42:56.564Z,8.47
2023-03-18T05:43:53.295Z,8.47
2023-03-18T05:44:53.224Z,8.44
2023-03-18T05:45:53.433Z,8.44
2023-03-18T05:46:53.249Z,8.42
2023-03-18T05:47:53.230Z,8.42
2023-03-18T05:48:53.416Z,8.42
2023-03-18T05:49:53.283Z,8.42
2023-03-18T05:50:53.134Z,8.44
2023-03-18T05:51:54.862Z,8.45
2023-03-18T05:52:53.121Z,8.45
2023-03-18T05:53:53.159Z,8.47
2023-03-18T05:54:53.077Z,8.47
2023-03-18T05:55:53.096Z,8.47
2023-03-18T05:56:53.456Z,8.48
2023-03-18T05:57:53.046Z,8.48
2023-03-18T05:58:53.073Z,8.48
2023-03-18T05:59:53.804Z,8.50
2023-03-18T06:00:53.039Z,8.50
2023-03-18T06:01:53.015Z,8.51
2023-03-18T06:02:52.953Z,8.54
2023-03-18T06:03:52.965Z,8.54
2023-03-18T06:04:52.947Z,8.55
2023-03-18T06:05:52.913Z,8.58
2023-03-18T06:06:52.898Z,8.62
2023-03-18T06:07:52.923Z,8.60
2023-03-18T06:08:52.870Z,8.62
2023-03-18T06:09:52.862Z,8.62
2023-03-18T06:10:52.843Z,8.62
2023-03-18T06:11:52.839Z,8.63
2023-03-18T06:12:52.872Z,8.63
2023-03-18T06:13:52.852Z,8.63
2023-03-18T06:14:52.806Z,8.63
2023-03-18T06:15:52.774Z,8.63
2023-03-18T06:16:52.865Z,8.63
2023-03-18T06:17:52.773Z,8.65
2023-03-18T06:18:52.722Z,8.66
2023-03-18T06:19:52.738Z,8.68
2023-03-18T06:20:52.705Z,8.68
2023-03-18T06:21:52.712Z,8.69
2023-03-18T06:22:52.684Z,8.72
2023-03-18T06:23:52.705Z,8.73
2023-03-18T06:24:52.684Z,8.75
2023-03-18T06:25:52.834Z,8.78
2023-03-18T06:26:52.677Z,8.79
2023-03-18T06:27:52.686Z,8.79
2023-03-18T06:28:52.822Z,8.81
2023-03-18T06:29:52.615Z,8.81
2023-03-18T06:30:52.621Z,8.83
2023-03-18T06:31:52.612Z,8.83
2023-03-18T06:32:52.738Z,8.83
2023-03-18T06:33:52.589Z,8.83
2023-03-18T06:34:52.594Z,8.83
2023-03-18T06:35:52.550Z,8.81
2023-03-18T06:36:52.501Z,8.83
2023-03-18T06:37:52.504Z,8.81
2023-03-18T06:38:52.849Z,8.81
2023-03-18T06:39:52.458Z,8.84
2023-03-18T06:40:52.619Z,8.84
2023-03-18T06:41:52.450Z,8.87
2023-03-18T06:42:52.491Z,8.90
2023-03-18T06:43:52.431Z,8.91
2023-03-18T06:44:52.400Z,8.94
2023-03-18T06:45:52.376Z,8.97
2023-03-18T06:46:52.342Z,9.01
2023-03-18T06:47:52.360Z,9.05
2023-03-18T06:48:52.328Z,9.12
2023-03-18T06:49:52.352Z,9.15
2023-03-18T06:50:52.313Z,9.21
2023-03-18T06:51:52.285Z,9.27
2023-03-18T06:52:52.298Z,9.30
2023-03-18T06:53:52.825Z,9.34
2023-03-18T06:54:52.244Z,9.38
2023-03-18T06:55:52.255Z,9.42
2023-03-18T06:56:52.214Z,9.46
2023-03-18T06:57:52.800Z,9.49
2023-03-18T06:58:52.797Z,9.52
2023-03-18T06:59:52.171Z,9.53
2023-03-18T07:00:52.236Z,9.56
2023-03-18T07:01:52.189Z,9.58
2023-03-18T07:02:52.146Z,9.61
2023-03-18T07:03:52.093Z,9.64
2023-03-18T07:04:52.104Z,9.67
2023-03-18T07:05:52.102Z,9.70
2023-03-18T07:06:52.084Z,9.73
2023-03-18T07:07:52.915Z,9.75
2023-03-18T07:08:52.036Z,9.78
2023-03-18T07:09:52.068Z,9.81
2023-03-18T07:10:52.212Z,9.83
2023-03-18T07:11:52.005Z,9.83
2023-03-18T07:12:52.049Z,9.85
2023-03-18T07:13:51.960Z,9.86
2023-03-18T07:14:51.954Z,9.86
2023-03-18T07:15:52.004Z,9.89
2023-03-18T07:16:52.042Z,9.91
2023-03-18T07:17:51.988Z,9.91
2023-03-18T07:18:51.961Z,9.91
2023-03-18T07:19:51.939Z,9.91
2023-03-18T07:20:51.929Z,9.93
2023-03-18T07:21:51.966Z,9.96
2023-03-18T07:22:51.906Z,9.99
2023-03-18T07:23:51.865Z,10.01
2023-03-18T07:24:51.874Z,10.12
2023-03-18T07:25:51.828Z,10.17
2023-03-18T07:26:51.897Z,10.24
2023-03-18T07:27:52.066Z,10.30
2023-03-18T07:28:51.814Z,10.34
2023-03-18T07:29:51.752Z,10.39
2023-03-18T07:30:54.055Z,10.44
2023-03-18T07:31:51.692Z,10.51
2023-03-18T07:32:51.811Z,10.56
2023-03-18T07:33:51.676Z,10.62
2023-03-18T07:34:51.686Z,10.68
2023-03-18T07:35:51.683Z,10.73
2023-03-18T07:36:51.661Z,10.77
2023-03-18T07:37:51.614Z,10.81
2023-03-18T07:38:51.589Z,10.88
2023-03-18T07:39:51.611Z,10.94
2023-03-18T07:40:51.573Z,11.01
2023-03-18T07:41:51.575Z,11.09
2023-03-18T07:42:51.546Z,11.11
2023-03-18T07:43:51.527Z,11.11
2023-03-18T07:44:51.562Z,11.11
2023-03-18T07:45:51.518Z,11.11
2023-03-18T07:46:51.595Z,11.07
2023-03-18T07:47:51.475Z,11.07
2023-03-18T07:48:51.452Z,11.02
2023-03-18T07:49:51.431Z,11.03
2023-03-18T07:50:51.494Z,11.02
2023-03-18T07:51:51.404Z,11.02
2023-03-18T07:52:51.421Z,11.06
2023-03-18T07:53:51.387Z,11.09
2023-03-18T07:54:51.413Z,11.10
2023-03-18T07:55:51.343Z,11.11
2023-03-18T07:56:51.408Z,11.14
2023-03-18T07:57:51.351Z,11.17
2023-03-18T07:58:51.303Z,11.19
2023-03-18T07:59:52.270Z,11.20
2023-03-18T08:00:51.298Z,11.21
2023-03-18T08:01:51.287Z,11.24
2023-03-18T08:02:51.287Z,11.24
2023-03-18T08:03:51.277Z,11.27
2023-03-18T08:04:51.239Z,11.27
2023-03-18T08:05:51.256Z,11.29
2023-03-18T08:06:51.252Z,11.32
2023-03-18T08:07:51.213Z,11.34
2023-03-18T08:08:51.175Z,11.36
2023-03-18T08:09:51.159Z,11.39
2023-03-18T08:10:51.131Z,11.41
2023-03-18T08:11:51.123Z,11.43
2023-03-18T08:12:53.446Z,11.43
2023-03-18T08:13:51.106Z,11.41
2023-03-18T08:14:51.174Z,11.41
2023-03-18T08:15:51.099Z,11.41
2023-03-18T08:16:51.108Z,11.43
2023-03-18T08:17:51.072Z,11.43
2023-03-18T08:18:51.066Z,11.41
2023-03-18T08:19:51.193Z,11.39
2023-03-18T08:20:51.028Z,11.39
2023-03-18T08:21:50.990Z,11.41
2023-03-18T08:22:51.662Z,11.34
2023-03-18T08:23:51.015Z,11.31
2023-03-18T08:24:51.169Z,11.21
2023-03-18T08:25:50.949Z,11.21
2023-03-18T08:26:50.974Z,11.24
2023-03-18T08:27:50.920Z,11.31
2023-03-18T08:28:50.966Z,11.36
2023-03-18T08:29:50.961Z,11.46
2023-03-18T08:30:50.935Z,11.57
2023-03-18T08:31:50.888Z,11.67
2023-03-18T08:32:50.964Z,11.75
2023-03-18T08:33:50.853Z,11.77
2023-03-18T08:34:50.858Z,11.83
2023-03-18T08:35:50.884Z,11.83
2023-03-18T08:36:51.834Z,11.82
2023-03-18T08:37:50.796Z,11.78
2023-03-18T08:38:50.774Z,11.74
2023-03-18T08:39:50.745Z,11.67
2023-03-18T08:40:50.753Z,11.59
2023-03-18T08:41:50.709Z,11.56
2023-03-18T08:42:50.801Z,11.54
2023-03-18T08:43:50.706Z,11.50
2023-03-18T08:44:50.680Z,11.50
2023-03-18T08:45:50.726Z,11.50
2023-03-18T08:46:50.674Z,11.50
2023-03-18T08:47:50.620Z,11.50
2023-03-18T08:48:50.672Z,11.53
2023-03-18T08:49:51.450Z,11.50
2023-03-18T08:50:50.571Z,11.50
2023-03-18T08:51:50.564Z,11.46
2023-03-18T08:52:50.571Z,11.41
2023-03-18T08:53:50.542Z,11.39
2023-03-18T08:54:51.410Z,11.39
2023-03-18T08:55:50.542Z,11.39
2023-03-18T08:56:50.563Z,11.38
2023-03-18T08:57:50.484Z,11.38
2023-03-18T08:58:50.515Z,11.35
2023-03-18T08:59:50.498Z,11.34
2023-03-18T09:00:50.559Z,11.34
2023-03-18T09:01:50.447Z,11.31
2023-03-18T09:02:50.413Z,11.29
2023-03-18T09:03:50.475Z,11.32
2023-03-18T09:04:50.478Z,11.31
2023-03-18T09:05:50.404Z,11.29
2023-03-18T09:06:50.448Z,11.29
2023-03-18T09:07:50.382Z,11.28
2023-03-18T09:08:50.345Z,11.28
2023-03-18T09:09:50.377Z,11.28
2023-03-18T09:10:50.429Z,11.29
2023-03-18T09:11:50.335Z,11.27
2023-03-18T09:12:51.185Z,11.27
2023-03-18T09:13:50.317Z,11.27
2023-03-18T09:14:50.308Z,11.27
2023-03-18T09:15:50.252Z,11.27
2023-03-18T09:16:50.277Z,11.27
2023-03-18T09:18:04.175Z,11.27
2023-03-18T09:18:51.251Z,11.25
2023-03-18T09:19:51.029Z,11.25
2023-03-18T09:20:50.243Z,11.24
2023-03-18T09:21:50.162Z,11.24
2023-03-18T09:22:50.130Z,11.28
2023-03-18T09:23:50.244Z,11.31
2023-03-18T09:24:50.099Z,11.34
2023-03-18T09:25:50.310Z,11.41
2023-03-18T09:26:50.090Z,11.49
2023-03-18T09:27:50.152Z,11.54
2023-03-18T09:28:50.160Z,11.59
2023-03-18T09:29:50.140Z,11.62
2023-03-18T09:30:50.086Z,11.62
2023-03-18T09:31:50.024Z,11.61
2023-03-18T09:32:50.035Z,11.68
2023-03-18T09:33:49.996Z,11.68
2023-03-18T09:34:49.960Z,11.74
2023-03-18T09:35:49.961Z,11.77
2023-03-18T09:36:49.929Z,11.82
2023-03-18T09:37:49.926Z,11.90
2023-03-18T09:38:49.924Z,12.02
2023-03-18T09:39:49.965Z,12.11
2023-03-18T09:40:49.883Z,12.19
2023-03-18T09:41:49.851Z,12.29
2023-03-18T09:42:49.843Z,12.37
2023-03-18T09:43:49.837Z,12.39
2023-03-18T09:44:49.823Z,12.41
2023-03-18T09:45:49.919Z,12.44
2023-03-18T09:46:49.941Z,12.51
2023-03-18T09:47:50.028Z,12.56
2023-03-18T09:48:49.802Z,12.63
2023-03-18T09:49:49.752Z,12.75
2023-03-18T09:50:49.747Z,12.89
2023-03-18T09:51:49.805Z,13.07
2023-03-18T09:52:49.766Z,13.24
2023-03-18T09:53:49.723Z,13.41
2023-03-18T09:54:49.664Z,13.51
2023-03-18T09:55:49.729Z,13.56
2023-03-18T09:56:49.710Z,13.55
2023-03-18T09:57:49.810Z,13.56
2023-03-18T09:58:49.621Z,13.56
2023-03-18T09:59:49.593Z,13.55
2023-03-18T10:00:49.657Z,13.49
2023-03-18T10:01:49.599Z,13.46
2023-03-18T10:02:49.571Z,13.38
2023-03-18T10:03:49.640Z,13.43
2023-03-18T10:04:49.539Z,13.41
2023-03-18T10:05:50.427Z,13.38
2023-03-18T10:06:49.792Z,13.47
2023-03-18T10:07:50.485Z,13.59
2023-03-18T10:08:50.381Z,13.67
2023-03-18T10:09:50.296Z,13.76
2023-03-18T10:10:49.588Z,13.79
2023-03-18T10:11:49.443Z,13.77
2023-03-18T10:12:49.445Z,13.84
2023-03-18T10:13:49.470Z,13.92
2023-03-18T10:14:49.413Z,13.96
2023-03-18T10:15:49.451Z,14.04
2023-03-18T10:16:49.365Z,14.17
2023-03-18T10:17:49.361Z,14.19
2023-03-18T10:18:49.346Z,14.19
2023-03-18T10:19:49.926Z,14.19
2023-03-18T10:20:49.319Z,14.14
2023-03-18T10:21:49.392Z,14.13
2023-03-18T10:22:49.267Z,14.20
2023-03-18T10:23:49.263Z,14.28
2023-03-18T10:24:49.237Z,14.31
2023-03-18T10:25:49.275Z,14.32
2023-03-18T10:26:49.248Z,14.34
2023-03-18T10:27:49.223Z,14.31
2023-03-18T10:28:49.248Z,14.29
2023-03-18T10:29:49.202Z,14.24
2023-03-18T10:30:49.184Z,14.24
2023-03-18T10:31:49.204Z,14.29
2023-03-18T10:32:50.485Z,14.39
2023-03-18T10:33:49.143Z,14.52
2023-03-18T10:34:49.096Z,14.61
2023-03-18T10:35:49.138Z,14.61
2023-03-18T10:36:49.111Z,14.65
2023-03-18T10:37:49.239Z,14.67
2023-03-18T10:38:49.057Z,14.65
2023-03-18T10:39:49.035Z,14.61
2023-03-18T10:40:49.036Z,14.56
2023-03-18T10:41:49.087Z,14.52
2023-03-18T10:42:49.049Z,14.44
2023-03-18T10:43:48.979Z,14.44
2023-03-18T10:44:49.043Z,14.42
2023-03-18T10:45:48.977Z,14.37
2023-03-18T10:46:49.056Z,14.37
2023-03-18T10:47:48.928Z,14.34
2023-03-18T10:48:48.942Z,14.34
2023-03-18T10:49:48.915Z,14.32
2023-03-18T10:50:48.883Z,14.27
2023-03-18T10:51:48.887Z,14.21
2023-03-18T10:52:48.855Z,14.17
2023-03-18T10:53:48.834Z,14.16
2023-03-18T10:54:48.863Z,14.20
2023-03-18T10:55:48.826Z,14.27
2023-03-18T10:56:48.819Z,14.27
2023-03-18T10:57:48.789Z,14.28
2023-03-18T10:58:48.757Z,14.24
2023-03-18T10:59:48.784Z,14.25
2023-03-18T11:00:48.743Z,14.32
2023-03-18T11:01:48.797Z,14.32
2023-03-18T11:02:48.844Z,14.32
2023-03-18T11:03:48.834Z,14.39
2023-03-18T11:04:48.688Z,14.46
2023-03-18T11:05:48.695Z,14.52
2023-03-18T11:06:48.644Z,14.57
2023-03-18T11:07:49.584Z,14.68
2023-03-18T11:08:48.617Z,14.71
2023-03-18T11:09:48.606Z,14.69
2023-03-18T11:10:48.644Z,14.71
2023-03-18T11:11:48.578Z,14.71
2023-03-18T11:12:48.569Z,14.81
2023-03-18T11:13:48.550Z,14.86
2023-03-18T11:14:48.533Z,14.93
2023-03-18T11:15:48.776Z,15.01
2023-03-18T11:16:48.540Z,15.06
2023-03-18T11:17:48.564Z,15.13
2023-03-18T11:18:48.563Z,15.21
2023-03-18T11:19:49.452Z,15.26
2023-03-18T11:20:48.504Z,15.30
2023-03-18T11:21:48.474Z,15.36
2023-03-18T11:22:48.416Z,15.49
2023-03-18T11:23:48.445Z,15.63
2023-03-18T11:24:48.408Z,15.67
2023-03-18T11:25:48.382Z,15.72
2023-03-18T11:26:48.402Z,15.81
2023-03-18T11:27:48.385Z,15.86
2023-03-18T11:28:48.332Z,15.93
2023-03-18T11:29:48.316Z,15.89
2023-03-18T11:30:48.370Z,15.89
2023-03-18T11:31:48.294Z,15.93
2023-03-18T11:32:48.363Z,15.94
2023-03-18T11:33:48.296Z,15.99
2023-03-18T11:34:48.246Z,16.22
2023-03-18T11:35:48.862Z,16.83
2023-03-18T11:36:48.237Z,17.11
2023-03-18T11:37:49.199Z,16.96
2023-03-18T11:38:48.266Z,17.06
2023-03-18T11:39:48.206Z,17.43
2023-03-18T11:40:48.184Z,17.99
2023-03-18T11:41:49.222Z,18.58
2023-03-18T11:42:48.126Z,19.08
2023-03-18T11:43:48.136Z,19.58
2023-03-18T11:44:48.242Z,20.15
2023-03-18T11:45:48.207Z,20.38
2023-03-18T11:46:48.096Z,20.56
2023-03-18T11:47:48.067Z,20.80
2023-03-18T11:48:48.079Z,21.05
2023-03-18T11:49:48.037Z,21.36
2023-03-18T11:50:48.067Z,21.56
2023-03-18T11:51:48.943Z,21.61
2023-03-18T11:52:48.021Z,21.81
2023-03-18T11:53:48.105Z,21.91
2023-03-18T11:54:47.970Z,21.85
2023-03-18T11:55:47.969Z,22.06
2023-03-18T11:56:48.003Z,22.37
2023-03-18T11:57:47.964Z,22.29
2023-03-18T11:58:47.926Z,22.57
2023-03-18T11:59:47.924Z,22.69
2023-03-18T12:00:47.885Z,22.93
2023-03-18T12:01:47.943Z,22.86
2023-03-18T12:02:47.878Z,22.52
2023-03-18T12:03:47.841Z,22.47
2023-03-18T12:04:47.861Z,22.37
2023-03-18T12:05:47.868Z,22.32
2023-03-18T12:06:47.828Z,22.60
2023-03-18T12:07:47.812Z,22.75
2023-03-18T12:08:47.946Z,22.49
2023-03-18T12:09:47.783Z,21.16
2023-03-18T12:10:47.857Z,21.09
2023-03-18T12:11:47.770Z,21.34
2023-03-18T12:12:47.799Z,21.60
2023-03-18T12:13:47.722Z,21.78
2023-03-18T12:14:47.710Z,21.98
2023-03-18T12:15:47.699Z,22.07
2023-03-18T12:16:47.679Z,21.19
2023-03-18T12:17:47.655Z,20.90
2023-03-18T12:18:47.718Z,20.53
2023-03-18T12:19:47.790Z,20.90
2023-03-18T12:20:47.629Z,21.38
2023-03-18T12:21:47.622Z,21.63
2023-03-18T12:22:47.579Z,21.71
2023-03-18T12:23:49.117Z,21.69
2023-03-18T12:24:47.595Z,21.72
2023-03-18T12:25:48.496Z,21.76
2023-03-18T12:26:47.546Z,22.22
2023-03-18T12:27:47.506Z,22.49
2023-03-18T12:28:47.595Z,22.59
2023-03-18T12:29:47.510Z,22.62
2023-03-18T12:30:47.492Z,22.90
2023-03-18T12:31:48.451Z,22.89
2023-03-18T12:32:47.491Z,22.97
2023-03-18T12:33:47.437Z,22.99
2023-03-18T12:34:47.552Z,22.86
2023-03-18T12:35:47.439Z,22.96
2023-03-18T12:36:47.415Z,23.27
2023-03-18T12:37:47.443Z,23.27
2023-03-18T12:38:47.388Z,23.31
2023-03-18T12:39:47.406Z,23.40
2023-03-18T12:40:47.344Z,23.67
2023-03-18T12:41:48.313Z,23.57
2023-03-18T12:42:47.374Z,23.50
2023-03-18T12:43:47.314Z,23.67
2023-03-18T12:44:47.276Z,23.75
2023-03-18T12:45:47.323Z,23.68
2023-03-18T12:46:47.284Z,24.04
2023-03-18T12:47:47.917Z,24.54
2023-03-18T12:48:47.254Z,25.00
2023-03-18T12:49:47.206Z,25.24
2023-03-18T12:50:47.274Z,25.15
2023-03-18T12:51:47.194Z,24.87
2023-03-18T12:52:47.275Z,24.42
2023-03-18T12:53:47.195Z,24.44
2023-03-18T12:54:47.161Z,24.47
2023-03-18T12:55:47.188Z,24.73
2023-03-18T12:56:47.123Z,24.22
2023-03-18T12:57:47.106Z,23.98
2023-03-18T12:58:47.106Z,23.72
2023-03-18T12:59:47.120Z,23.46
2023-03-18T13:00:47.138Z,23.47
2023-03-18T13:01:47.201Z,23.55
2023-03-18T13:02:47.103Z,23.60
2023-03-18T13:03:47.056Z,23.29
2023-03-18T13:04:46.985Z,23.23
2023-03-18T13:05:47.008Z,22.19
2023-03-18T13:06:47.035Z,22.14